Time;durP1;ratioP1;P1;durP2;ratioP2;P2;SDS_P1;SDS_P2;PMS_P1;PMS_P2;Temp;Humidity;BMP_temperature;BMP_pressure;BME280_temperature;BME280_humidity;BME280_pressure;Samples;Min_cycle;Max_cycle;Signal;HPM_P1;HPM_P2
2023/07/11 00:02:16;;;;;;;;;;;27.30;47.90;;;;;;5002369;28;19984;-70
2023/07/11 00:04:43;;;;;;;;;;;27.30;48.00;;;;;;5004900;28;19933;-70
2023/07/11 00:07:09;;;;;;;;;;;27.20;48.10;;;;;;5003479;28;20629;-70
2023/07/11 00:09:36;;;;;;;;;;;27.20;48.10;;;;;;5004469;28;19926;-70
2023/07/11 00:12:02;;;;;;;;;;;27.20;48.20;;;;;;5004887;28;19987;-69
2023/07/11 00:14:29;;;;;;;;;;;27.10;48.20;;;;;;5004452;28;20426;-70
2023/07/11 00:16:55;;;;;;;;;;;27.10;48.30;;;;;;5004012;28;19937;-70
2023/07/11 00:19:23;;;;;;;;;;;27.00;48.30;;;;;;5006064;28;19929;-70
2023/07/11 00:21:50;;;;;;;;;;;27.00;48.40;;;;;;5001293;28;20516;-71
2023/07/11 00:24:16;;;;;;;;;;;27.00;48.50;;;;;;5005018;28;19940;-69
2023/07/11 00:26:43;;;;;;;;;;;26.90;48.60;;;;;;5009360;28;19944;-70
2023/07/11 00:29:16;;;;;;;;;;;26.90;48.70;;;;;;5005275;28;20000;-71
2023/07/11 00:31:42;;;;;;;;;;;26.90;48.80;;;;;;5004070;28;19929;-70
2023/07/11 00:34:09;;;;;;;;;;;26.80;48.90;;;;;;5005394;28;19995;-70
2023/07/11 00:36:37;;;;;;;;;;;26.80;48.90;;;;;;5005668;28;19976;-70
2023/07/11 00:39:04;;;;;;;;;;;26.80;49.00;;;;;;5001903;28;19933;-69
2023/07/11 00:41:30;;;;;;;;;;;26.70;49.00;;;;;;5004796;28;20366;-70
2023/07/11 00:43:57;;;;;;;;;;;26.70;49.00;;;;;;5005088;28;19929;-70
2023/07/11 00:46:24;;;;;;;;;;;26.70;49.10;;;;;;4994805;28;20410;-71
2023/07/11 00:48:52;;;;;;;;;;;26.60;49.10;;;;;;4986662;28;19933;-70
2023/07/11 00:51:20;;;;;;;;;;;26.60;49.20;;;;;;4985484;28;19929;-70
2023/07/11 00:53:48;;;;;;;;;;;26.50;49.20;;;;;;4988943;28;19984;-70
2023/07/11 00:56:17;;;;;;;;;;;26.50;49.30;;;;;;4985212;28;19941;-70
2023/07/11 00:58:44;;;;;;;;;;;26.50;49.40;;;;;;4985292;28;20543;-70
2023/07/11 01:01:11;;;;;;;;;;;26.40;49.40;;;;;;4986283;28;19929;-69
2023/07/11 01:03:38;;;;;;;;;;;26.40;49.50;;;;;;4991937;28;19937;-70
2023/07/11 01:06:09;;;;;;;;;;;26.40;49.70;;;;;;4987407;28;19966;-70
2023/07/11 01:08:36;;;;;;;;;;;26.30;49.70;;;;;;4984029;28;19933;-70
2023/07/11 01:11:04;;;;;;;;;;;26.30;49.90;;;;;;4988677;28;20378;-71
2023/07/11 01:13:30;;;;;;;;;;;26.30;50.00;;;;;;4994404;28;19976;-71
2023/07/11 01:15:57;;;;;;;;;;;26.20;50.00;;;;;;4993356;28;19936;-70
2023/07/11 01:18:23;;;;;;;;;;;26.20;50.10;;;;;;5010043;28;19980;-70
2023/07/11 01:20:50;;;;;;;;;;;26.20;50.20;;;;;;5008428;28;19930;-70
2023/07/11 01:23:18;;;;;;;;;;;26.10;50.20;;;;;;5005241;28;19977;-70
2023/07/11 01:25:45;;;;;;;;;;;26.10;50.30;;;;;;5007074;28;20338;-69
2023/07/11 01:28:13;;;;;;;;;;;26.10;50.30;;;;;;5010383;28;19929;-70
2023/07/11 01:30:39;;;;;;;;;;;26.00;50.30;;;;;;5005313;28;19934;-69
2023/07/11 01:33:06;;;;;;;;;;;26.00;50.40;;;;;;4994709;28;19985;-70
2023/07/11 01:35:32;;;;;;;;;;;25.90;50.40;;;;;;4995297;28;19976;-69
2023/07/11 01:37:59;;;;;;;;;;;25.90;50.50;;;;;;4990107;28;19929;-69
2023/07/11 01:40:27;;;;;;;;;;;25.90;50.60;;;;;;4991985;28;19992;-70
2023/07/11 01:42:53;;;;;;;;;;;25.90;50.70;;;;;;4988659;28;19936;-69
2023/07/11 01:45:20;;;;;;;;;;;25.80;50.70;;;;;;4987937;28;19972;-70
2023/07/11 01:47:47;;;;;;;;;;;25.80;51.40;;;;;;4988876;28;19937;-69
2023/07/11 01:50:13;;;;;;;;;;;25.80;50.90;;;;;;4982577;28;19930;-70
2023/07/11 01:52:40;;;;;;;;;;;25.70;50.90;;;;;;4987903;28;19929;-69
2023/07/11 01:55:09;;;;;;;;;;;25.70;51.00;;;;;;4988825;28;20391;-70
2023/07/11 01:57:36;;;;;;;;;;;25.70;51.10;;;;;;4991171;28;20003;-69
2023/07/11 02:00:04;;;;;;;;;;;25.70;51.20;;;;;;4986373;28;19934;-70
2023/07/11 02:02:30;;;;;;;;;;;25.60;51.30;;;;;;5002019;28;19929;-70
2023/07/11 02:04:57;;;;;;;;;;;25.60;51.40;;;;;;5002554;28;21609;-70
2023/07/11 02:07:24;;;;;;;;;;;25.60;51.50;;;;;;5002906;28;19936;-70
2023/07/11 02:09:50;;;;;;;;;;;25.50;51.50;;;;;;5007358;28;20024;-70
2023/07/11 02:12:17;;;;;;;;;;;25.50;51.60;;;;;;5005537;28;20036;-69
2023/07/11 02:14:46;;;;;;;;;;;25.40;51.60;;;;;;5005661;28;20311;-70
2023/07/11 02:17:14;;;;;;;;;;;25.40;51.70;;;;;;4994749;28;19972;-70
2023/07/11 02:19:41;;;;;;;;;;;25.40;51.80;;;;;;4987962;28;20013;-70
2023/07/11 02:22:08;;;;;;;;;;;25.30;51.90;;;;;;4990358;28;19934;-70
2023/07/11 02:24:34;;;;;;;;;;;25.30;52.00;;;;;;4983178;28;19937;-70
2023/07/11 02:27:01;;;;;;;;;;;25.30;52.10;;;;;;4995350;28;20346;-70
2023/07/11 02:29:27;;;;;;;;;;;25.30;52.20;;;;;;4989216;28;19976;-69
2023/07/11 02:31:55;;;;;;;;;;;25.20;52.30;;;;;;5001141;28;19930;-69
2023/07/11 02:34:22;;;;;;;;;;;25.20;52.40;;;;;;5006214;28;19930;-69
2023/07/11 02:36:48;;;;;;;;;;;25.10;52.40;;;;;;5005818;28;20436;-70
2023/07/11 02:39:15;;;;;;;;;;;25.10;52.60;;;;;;5001280;28;19930;-70
2023/07/11 02:41:42;;;;;;;;;;;25.10;52.60;;;;;;5005647;28;20296;-69
2023/07/11 02:44:08;;;;;;;;;;;25.00;52.70;;;;;;5007000;28;20698;-70
2023/07/11 02:46:35;;;;;;;;;;;25.00;52.80;;;;;;5005496;28;19983;-69
2023/07/11 02:49:03;;;;;;;;;;;25.00;52.90;;;;;;5007054;28;19952;-70
2023/07/11 02:51:29;;;;;;;;;;;25.00;52.90;;;;;;5004290;28;19930;-69
2023/07/11 02:53:56;;;;;;;;;;;24.90;53.00;;;;;;5007358;28;19933;-70
2023/07/11 02:56:23;;;;;;;;;;;24.90;53.10;;;;;;5004823;28;19935;-70
2023/07/11 02:58:51;;;;;;;;;;;24.90;53.10;;;;;;5007309;28;20683;-70
2023/07/11 03:01:18;;;;;;;;;;;24.80;53.10;;;;;;5005422;28;19937;-70
2023/07/11 03:03:45;;;;;;;;;;;24.80;53.20;;;;;;5006609;28;19938;-71
2023/07/11 03:06:12;;;;;;;;;;;24.80;53.30;;;;;;5010984;28;19937;-69
2023/07/11 03:08:39;;;;;;;;;;;24.80;54.00;;;;;;5004196;28;19937;-70
2023/07/11 03:11:05;;;;;;;;;;;24.70;53.40;;;;;;5006608;28;19999;-70
2023/07/11 03:13:32;;;;;;;;;;;24.70;53.50;;;;;;5000592;28;19929;-71
2023/07/11 03:16:02;;;;;;;;;;;24.70;53.60;;;;;;5004752;28;19929;-70
2023/07/11 03:18:28;;;;;;;;;;;24.60;53.60;;;;;;5005556;28;19932;-70
2023/07/11 03:20:57;;;;;;;;;;;24.60;53.70;;;;;;5005632;28;19968;-70
2023/07/11 03:23:25;;;;;;;;;;;24.60;53.70;;;;;;5003695;28;19936;-69
2023/07/11 03:25:52;;;;;;;;;;;24.50;53.70;;;;;;5004606;28;19933;-69
2023/07/11 03:28:18;;;;;;;;;;;24.50;53.80;;;;;;5006316;28;19988;-70
2023/07/11 03:30:45;;;;;;;;;;;24.50;53.90;;;;;;4995931;28;20534;-71
2023/07/11 03:33:11;;;;;;;;;;;24.50;53.90;;;;;;4986864;28;20007;-69
2023/07/11 03:35:38;;;;;;;;;;;24.50;54.00;;;;;;4981944;28;19930;-69
2023/07/11 03:38:04;;;;;;;;;;;24.40;54.00;;;;;;4985784;28;19929;-70
2023/07/11 03:40:32;;;;;;;;;;;24.40;54.00;;;;;;4986452;28;19991;-69
2023/07/11 03:42:59;;;;;;;;;;;24.40;54.10;;;;;;4986216;28;20000;-70
2023/07/11 03:45:25;;;;;;;;;;;24.30;54.10;;;;;;4990861;28;19984;-69
2023/07/11 03:47:52;;;;;;;;;;;24.30;54.20;;;;;;5004497;28;20379;-70
2023/07/11 03:50:21;;;;;;;;;;;24.30;54.30;;;;;;5002851;28;19925;-69
2023/07/11 03:52:47;;;;;;;;;;;24.30;54.40;;;;;;5005141;28;19930;-70
2023/07/11 03:55:14;;;;;;;;;;;24.30;54.40;;;;;;5006009;28;19930;-69
2023/07/11 03:57:41;;;;;;;;;;;24.20;54.40;;;;;;5004110;28;19952;-70
2023/07/11 04:00:09;;;;;;;;;;;24.20;54.50;;;;;;5006402;28;19929;-69
2023/07/11 04:02:36;;;;;;;;;;;24.20;54.60;;;;;;5002547;28;19929;-68
2023/07/11 04:05:02;;;;;;;;;;;24.20;54.60;;;;;;5008562;28;19991;-71
2023/07/11 04:07:29;;;;;;;;;;;24.10;54.60;;;;;;5006959;28;19933;-71
2023/07/11 04:09:55;;;;;;;;;;;24.10;54.70;;;;;;5006367;28;19933;-70
2023/07/11 04:12:22;;;;;;;;;;;24.10;54.80;;;;;;5006747;28;19929;-70
2023/07/11 04:14:50;;;;;;;;;;;24.00;54.80;;;;;;5006071;28;19934;-70
2023/07/11 04:17:16;;;;;;;;;;;24.00;54.90;;;;;;5002960;28;19937;-70
2023/07/11 04:19:43;;;;;;;;;;;24.00;54.90;;;;;;4995251;28;19937;-70
2023/07/11 04:22:09;;;;;;;;;;;24.00;55.00;;;;;;5003871;28;19933;-70
2023/07/11 04:24:36;;;;;;;;;;;24.00;55.10;;;;;;5002551;28;19934;-71
2023/07/11 04:27:02;;;;;;;;;;;24.00;55.20;;;;;;5001779;28;19933;-71
2023/07/11 04:29:29;;;;;;;;;;;23.90;55.20;;;;;;5003148;28;20052;-70
2023/07/11 04:31:57;;;;;;;;;;;23.90;55.30;;;;;;4999613;28;19929;-70
2023/07/11 04:34:23;;;;;;;;;;;23.90;55.40;;;;;;5005990;28;19932;-71
2023/07/11 04:36:50;;;;;;;;;;;23.90;55.50;;;;;;5004779;28;19937;-69
2023/07/11 04:39:16;;;;;;;;;;;23.80;55.60;;;;;;5004738;28;19983;-71
2023/07/11 04:41:43;;;;;;;;;;;23.80;55.60;;;;;;5005410;28;19940;-70
2023/07/11 04:44:09;;;;;;;;;;;23.80;55.60;;;;;;5009382;28;19933;-69
2023/07/11 04:46:36;;;;;;;;;;;23.80;55.80;;;;;;4997731;28;19934;-69
2023/07/11 04:49:04;;;;;;;;;;;23.80;55.80;;;;;;4993209;28;19937;-70
2023/07/11 04:51:31;;;;;;;;;;;23.80;55.80;;;;;;4990627;28;19938;-69
2023/07/11 04:53:58;;;;;;;;;;;23.70;55.90;;;;;;4996489;28;20403;-69
2023/07/11 04:56:24;;;;;;;;;;;23.70;56.00;;;;;;4995149;28;19930;-67
2023/07/11 04:58:51;;;;;;;;;;;23.60;58.30;;;;;;4993100;28;19937;-71
2023/07/11 05:01:18;;;;;;;;;;;23.40;59.20;;;;;;5001566;28;19976;-72
2023/07/11 05:03:45;;;;;;;;;;;23.30;59.00;;;;;;5012203;28;19933;-73
2023/07/11 05:06:13;;;;;;;;;;;23.20;59.00;;;;;;5009460;28;19932;-73
2023/07/11 05:08:40;;;;;;;;;;;23.20;59.00;;;;;;5008917;28;19929;-72
2023/07/11 05:11:08;;;;;;;;;;;23.20;59.00;;;;;;5014102;28;19950;-73
2023/07/11 05:13:35;;;;;;;;;;;23.20;58.90;;;;;;5003576;28;19930;-74
2023/07/11 05:16:02;;;;;;;;;;;23.20;58.80;;;;;;5003145;28;19933;-72
2023/07/11 05:18:29;;;;;;;;;;;23.20;58.70;;;;;;5008219;28;19933;-73
2023/07/11 05:20:55;;;;;;;;;;;23.20;58.70;;;;;;5006288;28;19937;-72
2023/07/11 05:23:24;;;;;;;;;;;23.20;58.60;;;;;;5008761;28;19933;-73
2023/07/11 05:25:51;;;;;;;;;;;23.30;58.70;;;;;;5002172;28;19933;-73
2023/07/11 05:28:18;;;;;;;;;;;23.30;58.60;;;;;;5008191;28;19988;-73
2023/07/11 05:30:44;;;;;;;;;;;23.30;58.60;;;;;;5007328;28;19933;-73
2023/07/11 05:33:11;;;;;;;;;;;23.30;58.60;;;;;;5008860;28;19933;-72
2023/07/11 05:35:45;;;;;;;;;;;23.30;58.60;;;;;;5010816;28;19975;-72
2023/07/11 05:38:12;;;;;;;;;;;23.30;58.60;;;;;;5004496;28;20909;-72
2023/07/11 05:40:41;;;;;;;;;;;23.30;58.60;;;;;;5008511;28;19980;-73
2023/07/11 05:43:07;;;;;;;;;;;23.30;58.60;;;;;;4997438;28;20749;-73
2023/07/11 05:45:34;;;;;;;;;;;23.30;58.60;;;;;;5007464;28;19968;-73
2023/07/11 05:48:00;;;;;;;;;;;23.30;58.70;;;;;;5007309;28;19929;-73
2023/07/11 05:50:27;;;;;;;;;;;23.30;58.70;;;;;;5007020;28;19930;-73
2023/07/11 05:52:54;;;;;;;;;;;23.30;58.70;;;;;;5007395;28;19936;-72
2023/07/11 05:55:20;;;;;;;;;;;23.30;58.70;;;;;;5007608;28;19929;-73
2023/07/11 05:57:48;;;;;;;;;;;23.30;58.70;;;;;;4999657;28;19980;-73
2023/07/11 06:00:15;;;;;;;;;;;23.30;58.70;;;;;;5004022;28;19937;-73
2023/07/11 06:02:42;;;;;;;;;;;23.30;58.70;;;;;;5007695;28;19929;-73
2023/07/11 06:05:08;;;;;;;;;;;23.30;58.60;;;;;;5006707;28;19947;-74
2023/07/11 06:07:35;;;;;;;;;;;23.40;58.80;;;;;;5007719;28;19933;-72
2023/07/11 06:10:01;;;;;;;;;;;23.30;58.70;;;;;;5008017;28;19987;-73
2023/07/11 06:12:28;;;;;;;;;;;23.40;58.80;;;;;;5007459;28;19941;-73
2023/07/11 06:14:56;;;;;;;;;;;23.40;58.80;;;;;;5001930;28;20713;-73
2023/07/11 06:17:23;;;;;;;;;;;23.40;58.70;;;;;;5006469;28;19929;-71
2023/07/11 06:19:49;;;;;;;;;;;23.40;58.80;;;;;;5006540;28;19929;-73
2023/07/11 06:22:16;;;;;;;;;;;23.40;58.80;;;;;;5006943;28;19944;-73
2023/07/11 06:24:42;;;;;;;;;;;23.40;58.80;;;;;;5003483;28;20442;-72
2023/07/11 06:27:09;;;;;;;;;;;23.40;58.90;;;;;;5004811;28;20778;-73
2023/07/11 06:29:35;;;;;;;;;;;23.40;59.00;;;;;;5006978;28;19937;-73
2023/07/11 06:32:03;;;;;;;;;;;23.40;58.90;;;;;;5005648;28;19980;-73
2023/07/11 06:34:30;;;;;;;;;;;23.40;58.90;;;;;;5007601;28;20011;-72
2023/07/11 06:36:57;;;;;;;;;;;23.50;59.00;;;;;;5008070;28;19929;-73
2023/07/11 06:39:25;;;;;;;;;;;23.50;59.00;;;;;;5007984;28;19971;-73
2023/07/11 06:41:51;;;;;;;;;;;23.50;59.00;;;;;;5005192;28;19936;-72
2023/07/11 06:44:18;;;;;;;;;;;23.50;58.90;;;;;;5002286;28;19942;-73
2023/07/11 06:46:44;;;;;;;;;;;23.50;58.80;;;;;;5005898;28;19929;-72
2023/07/11 06:49:12;;;;;;;;;;;23.50;59.00;;;;;;5013500;28;19976;-72
2023/07/11 06:51:39;;;;;;;;;;;23.60;58.90;;;;;;5004939;28;20008;-74
2023/07/11 06:54:05;;;;;;;;;;;23.50;59.00;;;;;;5006430;28;19933;-73
2023/07/11 06:56:33;;;;;;;;;;;23.60;59.10;;;;;;5007186;28;20379;-72
2023/07/11 06:58:59;;;;;;;;;;;23.60;59.20;;;;;;5008517;28;19987;-73
2023/07/11 07:01:26;;;;;;;;;;;23.60;59.30;;;;;;4995189;28;19984;-73
2023/07/11 07:03:52;;;;;;;;;;;23.60;59.00;;;;;;5003861;28;19937;-73
2023/07/11 07:06:21;;;;;;;;;;;23.70;59.10;;;;;;5003982;28;19925;-73
2023/07/11 07:08:48;;;;;;;;;;;23.70;59.20;;;;;;5008296;28;19940;-72
2023/07/11 07:11:16;;;;;;;;;;;23.70;59.20;;;;;;5004527;28;19935;-73
2023/07/11 07:13:42;;;;;;;;;;;23.70;59.10;;;;;;5005274;28;19933;-74
2023/07/11 07:16:09;;;;;;;;;;;23.70;59.10;;;;;;4998931;28;19937;-72
2023/07/11 07:18:37;;;;;;;;;;;23.80;59.10;;;;;;5005951;28;19940;-73
2023/07/11 07:21:04;;;;;;;;;;;23.80;59.30;;;;;;5005331;28;19968;-72
2023/07/11 07:23:33;;;;;;;;;;;23.80;59.10;;;;;;5009129;28;20433;-72
2023/07/11 07:26:01;;;;;;;;;;;23.80;59.10;;;;;;5004883;28;19988;-73
2023/07/11 07:28:28;;;;;;;;;;;23.80;59.10;;;;;;5005690;28;20429;-73
2023/07/11 07:30:55;;;;;;;;;;;23.90;59.10;;;;;;4996961;28;19936;-74
2023/07/11 07:33:24;;;;;;;;;;;23.90;59.10;;;;;;4985518;28;19937;-73
2023/07/11 07:35:54;;;;;;;;;;;23.90;59.10;;;;;;4992780;28;19925;-73
2023/07/11 07:38:21;;;;;;;;;;;24.00;59.10;;;;;;4995886;28;19930;-73
2023/07/11 07:40:52;;;;;;;;;;;24.00;59.00;;;;;;4989399;28;19930;-73
2023/07/11 07:43:19;;;;;;;;;;;24.00;59.00;;;;;;4984255;28;19929;-73
2023/07/11 07:45:47;;;;;;;;;;;24.00;59.00;;;;;;4990249;28;19930;-73
2023/07/11 07:48:14;;;;;;;;;;;24.00;59.00;;;;;;4992895;28;19960;-73
2023/07/11 07:50:40;;;;;;;;;;;24.10;58.90;;;;;;4991017;28;20423;-73
2023/07/11 07:53:07;;;;;;;;;;;24.10;58.80;;;;;;4988253;28;19976;-73
2023/07/11 07:55:35;;;;;;;;;;;24.20;59.00;;;;;;4991043;28;19934;-73
2023/07/11 07:58:02;;;;;;;;;;;24.20;58.90;;;;;;4987496;28;19937;-73
2023/07/11 08:00:29;;;;;;;;;;;24.20;58.80;;;;;;4990568;28;20003;-72
2023/07/11 08:02:55;;;;;;;;;;;24.20;58.80;;;;;;5005218;28;21316;-73
2023/07/11 08:05:22;;;;;;;;;;;24.30;58.80;;;;;;5005011;28;19929;-74
2023/07/11 08:07:49;;;;;;;;;;;24.30;58.80;;;;;;5007141;28;19929;-73
2023/07/11 08:10:16;;;;;;;;;;;24.40;58.80;;;;;;5007806;28;20568;-74
2023/07/11 08:12:42;;;;;;;;;;;24.30;58.60;;;;;;5003789;28;19991;-73
2023/07/11 08:15:11;;;;;;;;;;;24.40;58.50;;;;;;5001793;28;19937;-73
2023/07/11 08:17:38;;;;;;;;;;;24.40;58.40;;;;;;4987592;28;19949;-73
2023/07/11 08:20:06;;;;;;;;;;;24.50;58.50;;;;;;4990487;28;19937;-74
2023/07/11 08:22:32;;;;;;;;;;;24.50;58.40;;;;;;4986183;28;20383;-72
2023/07/11 08:24:59;;;;;;;;;;;24.50;58.50;;;;;;4986718;28;19930;-74
2023/07/11 08:27:25;;;;;;;;;;;24.60;58.40;;;;;;4988053;28;19930;-72
2023/07/11 08:29:52;;;;;;;;;;;24.60;58.40;;;;;;4988828;28;19957;-73
2023/07/11 08:32:20;;;;;;;;;;;24.60;58.40;;;;;;5003308;28;19992;-74
2023/07/11 08:34:46;;;;;;;;;;;24.70;58.30;;;;;;4998877;28;19934;-73
2023/07/11 08:37:13;;;;;;;;;;;24.70;58.30;;;;;;5001040;28;19980;-73
2023/07/11 08:39:40;;;;;;;;;;;24.80;58.30;;;;;;5000491;28;19936;-73
2023/07/11 08:42:10;;;;;;;;;;;24.80;58.10;;;;;;5005033;28;20346;-72
2023/07/11 08:44:38;;;;;;;;;;;24.80;58.20;;;;;;5002365;28;19933;-73
2023/07/11 08:47:07;;;;;;;;;;;24.90;58.20;;;;;;4992616;28;20009;-72
2023/07/11 08:49:37;;;;;;;;;;;24.90;58.20;;;;;;4995536;28;19930;-73
2023/07/11 08:52:05;;;;;;;;;;;25.00;58.20;;;;;;4990195;28;19934;-74
2023/07/11 08:54:34;;;;;;;;;;;25.00;58.10;;;;;;4991184;28;20377;-74
2023/07/11 08:57:00;;;;;;;;;;;25.10;58.10;;;;;;4993182;28;19933;-74
2023/07/11 08:59:32;;;;;;;;;;;25.10;58.00;;;;;;4990790;28;19929;-74
2023/07/11 09:02:02;;;;;;;;;;;25.10;57.90;;;;;;4999967;28;19933;-73
2023/07/11 09:04:30;;;;;;;;;;;25.20;57.90;;;;;;5007777;28;19929;-74
2023/07/11 09:06:58;;;;;;;;;;;25.20;57.80;;;;;;5005115;28;19929;-72
2023/07/11 09:09:26;;;;;;;;;;;25.30;57.80;;;;;;5005391;28;19943;-73
2023/07/11 09:11:57;;;;;;;;;;;25.30;57.80;;;;;;5008341;28;20434;-73
2023/07/11 09:14:27;;;;;;;;;;;25.30;57.80;;;;;;4996899;28;19929;-73
2023/07/11 09:16:58;;;;;;;;;;;25.40;57.70;;;;;;5000803;28;19936;-73
2023/07/11 09:19:28;;;;;;;;;;;25.50;57.70;;;;;;4999425;28;19930;-73
2023/07/11 09:21:58;;;;;;;;;;;25.50;57.60;;;;;;5004894;28;19989;-73
2023/07/11 09:24:31;;;;;;;;;;;25.60;57.60;;;;;;5003538;28;19930;-73
2023/07/11 09:27:00;;;;;;;;;;;25.60;57.50;;;;;;5004520;28;20008;-74
2023/07/11 09:29:26;;;;;;;;;;;25.70;57.60;;;;;;5004584;28;21570;-74
2023/07/11 09:31:59;;;;;;;;;;;25.70;57.40;;;;;;4998780;28;19925;-74
2023/07/11 09:34:27;;;;;;;;;;;25.80;57.40;;;;;;5007537;28;19936;-73
2023/07/11 09:36:56;;;;;;;;;;;25.80;57.30;;;;;;5001411;28;19930;-73
2023/07/11 09:39:27;;;;;;;;;;;25.90;57.40;;;;;;5006841;28;19933;-74
2023/07/11 09:41:59;;;;;;;;;;;25.90;57.30;;;;;;5008573;28;20393;-73
2023/07/11 09:44:25;;;;;;;;;;;26.00;57.10;;;;;;5007209;28;19956;-75
2023/07/11 09:46:52;;;;;;;;;;;26.10;57.00;;;;;;5006901;28;20012;-73
2023/07/11 09:49:21;;;;;;;;;;;26.20;56.90;;;;;;5000002;28;19929;-73
2023/07/11 09:51:49;;;;;;;;;;;26.20;56.80;;;;;;5007222;28;19929;-73
2023/07/11 09:54:19;;;;;;;;;;;26.20;56.70;;;;;;5010113;28;19929;-74
2023/07/11 09:56:47;;;;;;;;;;;26.30;56.60;;;;;;5012147;28;20049;-73
2023/07/11 09:59:15;;;;;;;;;;;26.40;56.60;;;;;;5012669;28;20280;-74
2023/07/11 10:01:42;;;;;;;;;;;26.50;56.40;;;;;;5006955;28;20429;-74
2023/07/11 10:04:09;;;;;;;;;;;26.60;56.20;;;;;;5015850;28;20426;-73
2023/07/11 10:06:39;;;;;;;;;;;26.60;56.10;;;;;;5005894;28;19933;-73
2023/07/11 10:09:11;;;;;;;;;;;26.70;56.10;;;;;;5008012;28;19949;-74
2023/07/11 10:11:38;;;;;;;;;;;26.80;55.90;;;;;;5008616;28;19936;-73
2023/07/11 10:14:04;;;;;;;;;;;26.90;55.90;;;;;;5008286;28;19933;-73
2023/07/11 10:16:33;;;;;;;;;;;27.00;55.80;;;;;;5004511;28;19930;-74
2023/07/11 10:18:59;;;;;;;;;;;27.00;55.70;;;;;;5007878;28;19983;-75
2023/07/11 10:21:27;;;;;;;;;;;27.10;55.50;;;;;;5007335;28;19929;-73
2023/07/11 10:23:54;;;;;;;;;;;27.20;55.50;;;;;;5007189;28;20008;-73
2023/07/11 10:26:22;;;;;;;;;;;27.30;55.40;;;;;;5008280;28;20647;-74
2023/07/11 10:28:55;;;;;;;;;;;27.40;55.40;;;;;;5007375;28;19991;-74
2023/07/11 10:31:36;;;;;;;;;;;27.40;55.30;;;;;;5007216;28;19937;-74
2023/07/11 10:34:06;;;;;;;;;;;27.50;55.20;;;;;;5003508;28;19936;-73
2023/07/11 10:36:36;;;;;;;;;;;27.60;55.20;;;;;;4996958;28;19933;-73
2023/07/11 10:39:04;;;;;;;;;;;27.70;55.00;;;;;;5003515;28;19972;-74
2023/07/11 10:41:33;;;;;;;;;;;27.80;54.90;;;;;;5003293;28;19933;-74
2023/07/11 10:44:00;;;;;;;;;;;27.90;54.90;;;;;;5006840;28;19937;-74
2023/07/11 10:46:34;;;;;;;;;;;27.90;54.70;;;;;;5006220;28;19940;-75
2023/07/11 10:49:06;;;;;;;;;;;28.00;54.50;;;;;;5006291;28;19933;-74
2023/07/11 10:51:37;;;;;;;;;;;28.10;54.50;;;;;;5002564;28;19973;-73
2023/07/11 10:54:05;;;;;;;;;;;28.20;54.40;;;;;;5006807;28;20617;-74
2023/07/11 10:56:33;;;;;;;;;;;28.20;54.20;;;;;;4998577;28;19930;-74
2023/07/11 10:59:00;;;;;;;;;;;28.30;54.10;;;;;;5004576;28;19960;-73
2023/07/11 11:01:30;;;;;;;;;;;28.40;54.10;;;;;;5005957;28;19929;-74
2023/07/11 11:04:03;;;;;;;;;;;28.40;53.90;;;;;;5007250;28;19937;-74
2023/07/11 11:06:53;;;;;;;;;;;28.50;53.80;;;;;;5006672;28;20398;-73
2023/07/11 11:09:22;;;;;;;;;;;28.60;53.50;;;;;;5005062;28;20007;-74
2023/07/11 11:11:54;;;;;;;;;;;28.70;53.50;;;;;;5008290;28;20391;-74
2023/07/11 11:14:23;;;;;;;;;;;28.70;53.40;;;;;;5005345;28;19979;-74
2023/07/11 11:16:56;;;;;;;;;;;28.90;53.30;;;;;;4994028;28;19937;-75
2023/07/11 11:19:28;;;;;;;;;;;28.90;53.00;;;;;;4998270;28;19930;-74
2023/07/11 11:21:58;;;;;;;;;;;29.00;53.00;;;;;;5005698;28;19930;-73
2023/07/11 11:24:31;;;;;;;;;;;29.10;52.70;;;;;;5003237;28;19929;-74
2023/07/11 11:27:01;;;;;;;;;;;29.10;52.50;;;;;;5006180;28;19925;-74
2023/07/11 11:29:37;;;;;;;;;;;29.20;52.50;;;;;;5004015;28;19937;-74
2023/07/11 11:32:07;;;;;;;;;;;29.30;52.50;;;;;;4999718;28;19930;-75
2023/07/11 11:34:41;;;;;;;;;;;29.40;52.30;;;;;;5006821;28;20461;-75
2023/07/11 11:37:14;;;;;;;;;;;29.40;52.00;;;;;;5006606;28;19956;-73
2023/07/11 11:39:44;;;;;;;;;;;29.50;51.80;;;;;;5006628;28;19933;-76
2023/07/11 11:42:16;;;;;;;;;;;29.60;51.70;;;;;;5008027;28;19929;-74
2023/07/11 11:44:44;;;;;;;;;;;29.60;51.70;;;;;;5000104;28;19937;-74
2023/07/11 11:47:12;;;;;;;;;;;29.70;51.50;;;;;;4992899;28;19980;-75
2023/07/11 11:49:39;;;;;;;;;;;29.70;51.40;;;;;;4982784;28;19977;-74
2023/07/11 11:52:06;;;;;;;;;;;29.80;51.30;;;;;;4996074;28;19959;-74
2023/07/11 11:54:37;;;;;;;;;;;29.90;51.40;;;;;;4987954;28;19934;-75
2023/07/11 11:57:04;;;;;;;;;;;30.00;51.40;;;;;;4994889;28;19929;-74
2023/07/11 11:59:31;;;;;;;;;;;30.00;51.20;;;;;;4987528;28;19933;-75
2023/07/11 12:02:01;;;;;;;;;;;30.10;51.10;;;;;;4979240;28;19936;-75
2023/07/11 12:04:35;;;;;;;;;;;30.20;51.10;;;;;;4979637;28;19930;-76
2023/07/11 12:07:06;;;;;;;;;;;30.20;50.90;;;;;;4986483;28;20387;-76
2023/07/11 12:09:40;;;;;;;;;;;30.30;50.70;;;;;;4981836;28;20004;-76
2023/07/11 12:12:07;;;;;;;;;;;30.40;50.70;;;;;;4995697;28;19936;-72
2023/07/11 12:14:35;;;;;;;;;;;30.50;50.70;;;;;;4990518;28;20020;-74
2023/07/11 12:17:02;;;;;;;;;;;30.50;50.50;;;;;;4992732;28;19929;-75
2023/07/11 12:19:30;;;;;;;;;;;30.50;50.50;;;;;;4992278;28;19968;-74
2023/07/11 12:21:57;;;;;;;;;;;30.60;50.30;;;;;;4992232;28;19929;-75
2023/07/11 12:24:26;;;;;;;;;;;30.70;50.20;;;;;;4986351;28;19960;-75
2023/07/11 12:26:54;;;;;;;;;;;30.80;50.20;;;;;;4995826;28;19930;-74
2023/07/11 12:29:35;;;;;;;;;;;30.80;50.10;;;;;;4992320;28;19933;-74
2023/07/11 12:32:20;;;;;;;;;;;30.90;50.00;;;;;;4991651;28;19929;-74
2023/07/11 12:34:54;;;;;;;;;;;31.00;50.00;;;;;;4999099;28;19929;-75
2023/07/11 12:37:22;;;;;;;;;;;31.00;49.90;;;;;;4994939;28;20660;-74
2023/07/11 12:39:51;;;;;;;;;;;31.10;49.70;;;;;;4984204;28;19933;-74
2023/07/11 12:42:32;;;;;;;;;;;31.10;49.60;;;;;;4994438;28;19934;-73
2023/07/11 12:44:59;;;;;;;;;;;31.20;49.60;;;;;;4979450;28;19936;-75
2023/07/11 12:47:26;;;;;;;;;;;31.30;50.20;;;;;;5003121;28;19960;-73
2023/07/11 12:49:53;;;;;;;;;;;31.30;49.50;;;;;;5003550;28;19929;-75
2023/07/11 12:52:21;;;;;;;;;;;31.40;49.50;;;;;;4997537;28;19936;-73
2023/07/11 12:54:48;;;;;;;;;;;31.40;49.40;;;;;;5005094;28;20299;-74
2023/07/11 12:57:16;;;;;;;;;;;31.50;49.20;;;;;;5008331;28;19988;-75
2023/07/11 12:59:44;;;;;;;;;;;31.60;49.10;;;;;;5004371;28;20385;-75
2023/07/11 13:02:15;;;;;;;;;;;31.60;49.10;;;;;;5006538;28;19964;-74
2023/07/11 13:04:43;;;;;;;;;;;31.70;48.90;;;;;;5007070;28;19929;-74
2023/07/11 13:07:11;;;;;;;;;;;31.70;49.00;;;;;;5006137;28;19933;-74
2023/07/11 13:09:43;;;;;;;;;;;31.80;48.90;;;;;;5009682;28;19930;-75
2023/07/11 13:12:12;;;;;;;;;;;31.80;48.90;;;;;;5008539;28;20011;-74
2023/07/11 13:14:41;;;;;;;;;;;31.90;48.60;;;;;;5010013;28;19941;-75
2023/07/11 13:17:11;;;;;;;;;;;31.90;48.50;;;;;;5004348;28;20268;-74
2023/07/11 13:19:38;;;;;;;;;;;32.00;48.50;;;;;;5000060;28;19929;-74
2023/07/11 13:22:05;;;;;;;;;;;32.10;48.60;;;;;;5009094;28;20088;-74
2023/07/11 13:24:31;;;;;;;;;;;32.10;48.40;;;;;;5004483;28;19929;-74
2023/07/11 13:27:03;;;;;;;;;;;32.20;48.40;;;;;;5004285;28;19937;-75
2023/07/11 13:29:36;;;;;;;;;;;32.20;48.40;;;;;;5001679;28;19929;-75
2023/07/11 13:32:04;;;;;;;;;;;32.20;48.30;;;;;;4991904;28;19936;-75
2023/07/11 13:34:32;;;;;;;;;;;32.30;48.20;;;;;;4988004;28;19941;-74
2023/07/11 13:36:59;;;;;;;;;;;32.40;48.20;;;;;;4987398;28;19937;-75
2023/07/11 13:39:27;;;;;;;;;;;32.50;48.20;;;;;;4992699;28;19937;-75
2023/07/11 13:41:55;;;;;;;;;;;32.50;48.00;;;;;;4991116;28;20307;-74
2023/07/11 13:44:26;;;;;;;;;;;32.50;47.80;;;;;;4984640;28;20012;-75
2023/07/11 13:46:53;;;;;;;;;;;32.60;47.70;;;;;;5000672;28;19936;-75
2023/07/11 13:49:21;;;;;;;;;;;32.70;47.00;;;;;;5010975;28;19937;-75
2023/07/11 13:51:55;;;;;;;;;;;32.70;47.30;;;;;;5008857;28;20657;-75
2023/07/11 13:54:23;;;;;;;;;;;32.80;47.40;;;;;;5005697;28;19987;-74
2023/07/11 13:56:50;;;;;;;;;;;32.90;47.30;;;;;;4999398;28;19936;-74
2023/07/11 13:59:17;;;;;;;;;;;32.90;47.10;;;;;;5003696;28;19940;-74
2023/07/11 14:01:44;;;;;;;;;;;33.00;46.90;;;;;;5004632;28;20666;-74
2023/07/11 14:04:15;;;;;;;;;;;33.00;46.90;;;;;;5007590;28;19937;-75
2023/07/11 14:06:41;;;;;;;;;;;33.10;47.00;;;;;;5006589;28;19937;-76
2023/07/11 14:09:11;;;;;;;;;;;33.10;47.50;;;;;;5007666;28;20296;-74
2023/07/11 14:11:37;;;;;;;;;;;33.20;46.90;;;;;;5005378;28;19933;-76
2023/07/11 14:14:06;;;;;;;;;;;33.30;46.80;;;;;;5009686;28;19930;-76
2023/07/11 14:16:32;;;;;;;;;;;33.30;46.70;;;;;;4995231;28;19933;-75
2023/07/11 14:18:59;;;;;;;;;;;33.40;46.20;;;;;;4982540;28;20693;-73
2023/07/11 14:21:25;;;;;;;;;;;33.40;46.00;;;;;;4988097;28;19938;-74